Dodge, Wisconsin
Current Conditions -  °F | °C
As of 11:54 AM on Friday 24 Oct 2014 (Local Time) from KONA Reporting Station
Scattered Clouds Scattered Clouds  
Wind Chill: 59°   Ceiling: Unl
Heat Index: 59°   Visibility: 10mi
Dew Point: 52°   Wind: 10mph
Humidity: 77%   Direction: 120°ESE
Pressure: 29.92"   Gusts: NA
Location:  44.13°N, 91.55°W
Report Text: KONA 241654Z AUTO 12009KT 10SM SCT080 SCT090 15/11 A2992 RMK AO2
Loading
Personal Weather Stations






























Interactive Weather Map
Tropical Storm Tracking
New forecast layout! Learn more

10-Day Weather Forecast

Advertisements
Track Severe Weather on mobile